Ivo Seferovic

Olheiro - St. Gallen
16 Abr 2028
Domingo
Processo

Personalidade

Adaptabilidade (18) Ambição (1) Controvérsia (20) Lealdade (15) Pressão (1) Profissionalismo (20) Espírito Esportivo (14) Temperamento (14)

Perfil

Estilo de Treinamento Democrático
Licença Continental C
Determinação 8
Gestão de Pessoas 13
Motivação 11
Disciplina 4
Satisfação no Trabalho
100%
Fadiga
0%
Função Olheiro
Salário 26.9K p/s
Contrato 14.03.2029

Desempenho

Comportamento Bom
Eficácia do Treinamento
38%
Desenvolvimento do Jogador
45%
Prevenção de Lesões
35%
Implementação Tática
65%

Eventos Recentes

Participou de uma reunião de recrutamento 7d atrás
Recomendou um alvo de transferência 7d atrás
Avaliou um jogador 14d atrás
Participou de uma reunião de recrutamento 14d atrás
Recomendou um alvo de transferência 14d atrás
Avaliou um jogador 14d atrás
Avaliou um jogador 14d atrás
Avaliou um jogador 21d atrás

Monitorando agora

111
Jogador Clube Status Habilidade Confiança Observado Última observação Último voto
Josh Nichols Oldham Athletic Ativo 123 / 126 40% 2 29.03.2028 -
Luca Meirelles Kudrivka Ativo 118 / 128 40% 1 29.03.2028 -
Siyabonga Mabena Bidvest Wits Ativo 119 / 114 40% 1 29.03.2028 -
Josh King Newcastle United Ativo 146 / 151 40% 2 28.03.2028 -
Aarón Ochoa Málaga Ativo 124 / 135 40% 2 28.03.2028 -
Sindre Walle Egeli Udinese Ativo 135 / 141 40% 2 28.03.2028 -
Eli Junior Kroupi Bournemouth Ativo 144 / 145 40% 2 27.03.2028 -
Gabriel Mec Feirense Ativo 125 / 136 40% 2 27.03.2028 -
Julien Duranville Olympique Lyonnais Ativo 141 / 135 40% 1 27.03.2028 -
Otto Stange Borussia Mönchengladbach Ativo 130 / 135 40% 2 25.03.2028 -
Igor Tyjon Barrow AFC Ativo 112 / 122 40% 2 25.03.2028 -
Trey Nyoni Rotherham United Ativo 134 / 149 40% 1 25.03.2028 -
Ryunosuke Sato Eibar Ativo 136 / 143 40% 2 24.03.2028 -
Héctor Fort Real Sociedad Ativo 138 / 151 40% 2 23.03.2028 -
Oscar Schwartau Norwich City Ativo 128 / 134 40% 1 23.03.2028 -
Ben Broggio Mansfield Town Ativo 108 / 111 40% 1 22.03.2028 -
Gabe Forsyth Colchester United Ativo 110 / 110 40% 1 21.03.2028 -
Ryan McAidoo Oldham Athletic Ativo 118 / 128 40% 1 20.03.2028 -
Henrique Carmo Sochi Ativo 138 / 123 40% 1 20.03.2028 -
Lennart Karl TSG Hoffenheim Ativo 140 / 143 40% 1 20.03.2028 -
Shea Lacey Crystal Palace Ativo 136 / 136 40% 1 19.03.2028 -
Salvador Blopá Sporting CP Ativo 120 / 124 40% 2 31.05.2027 -
Caleb Yirenkyi Coventry City Ativo 141 / 136 40% 2 31.05.2027 Mais informações
Leo Sauer VfB Stuttgart Ativo 135 / 140 40% 1 31.05.2027 -
Tyrese Campbell Sheffield United Ativo 134 / 119 40% 4 30.05.2027 -
Mohamed-Ali Cho Hull City Ativo 134 / 134 40% 3 30.05.2027 -
Samuel Edozie Southampton Ativo 129 / 123 40% 2 30.05.2027 -
Max Johnston Derby County Ativo 128 / 133 40% 2 29.05.2027 -
Finn Azaz Southampton Ativo 132 / 123 40% 3 28.05.2027 -
Tiago Freitas Benfica Ativo 112 / 116 40% 3 27.05.2027 -
Jan Bürger Northampton Town Ativo 108 / 115 40% 2 27.05.2027 -
Pietro Reggiori Pro Patria Ativo 88 / 93 40% 3 26.05.2027 -
Finn Jeltsch VfB Stuttgart Ativo 132 / 134 40% 1 26.05.2027 -
Ali Ahmed Norwich City Ativo 127 / 118 40% 2 25.05.2027 -
Milan van Ewijk Coventry City Ativo 137 / 135 40% 2 25.05.2027 -
Miguel Figueiredo Benfica Ativo 103 / 118 40% 2 24.05.2027 -
Kazunari Kita Real Sociedad Ativo 100 / 97 40% 2 24.05.2027 -
Leandro Martins Benfica Ativo 98 / 100 40% 1 22.05.2027 -
Germán Barbas Burgos Ativo 97 / 111 40% 1 22.05.2027 -
Samuele di Benedetto Twente Ativo 114 / 117 40% 1 22.05.2027 -
Jack Rudoni Coventry City Ativo 134 / 141 40% 3 21.05.2027 -
Bence Dárdai VfL Wolfsburg Ativo 128 / 137 40% 2 20.05.2027 -
Francis Gomez Cardiff City Ativo 104 / 115 40% 3 20.05.2027 -
Tommaso Cecotti Carpi Ativo 88 / 102 40% 2 20.05.2027 -
Matvey Kislyak CSKA Moscow Ativo 124 / 132 40% 1 18.05.2027 -
Bongani Jali Free State Stars Ativo 88 / 92 40% 1 18.05.2027 -
Derensili Sanches Fernandes Huddersfield Town Ativo 125 / 129 40% 7 17.05.2027 -
Joe Gelhardt Hull City Ativo 131 / 125 40% 4 09.05.2027 -
Malik Mothersille Stockport County Ativo 114 / 120 40% 2 08.05.2027 -
Chari Giwa US Bougouni Ativo 88 / 77 40% 3 07.05.2027 -
Ivan Giraldo Valencia Ativo 113 / 125 40% 1 07.05.2027 -
Tony Springett Cheltenham Town Ativo 107 / 103 40% 2 03.05.2027 -
Ezra Mayers West Ham United Ativo 118 / 122 40% 1 03.05.2027 -
Gonçalo Oliveira Benfica Ativo 111 / 113 40% 1 03.05.2027 -
Younes Ebnoutalib Eintracht Frankfurt Ativo 132 / 131 40% 1 03.05.2027 -
Daniel Kyerewaa Reading Ativo 109 / 115 40% 1 03.05.2027 -
Louie Barry Sheffield Wednesday Ativo 128 / 119 40% 4 30.04.2027 -
Sam Greenwood Bristol City Ativo 118 / 124 40% 2 30.04.2027 -
Oswin Appollis Orlando Pirates Ativo 118 / 109 40% 5 27.04.2027 -
Wilson Isidor Sunderland Ativo 143 / 128 40% 3 27.04.2027 -
Malick Fofana Sunderland Ativo 150 / 145 40% 1 25.04.2027 -
Enzo Le Fée Sunderland Ativo 142 / 145 40% 1 24.04.2027 -
Bobby Clark Derby County Ativo 121 / 119 40% 1 21.04.2027 -
Jenson Jones Walsall Ativo 93 / 98 40% 2 16.04.2027 -
Kwadwo Baah Watford Ativo 122 / 127 40% 2 14.04.2027 -
Carlos Vicente Birmingham Ativo 150 / 135 40% 6 12.04.2027 -
Cian Ashford Cardiff City Ativo 123 / 116 40% 4 07.04.2027 -
Jason Knight Bristol City Ativo 132 / 124 40% 2 01.04.2027 -
Matt O'Riley Brighton Ativo 149 / 141 40% 1 01.04.2027 -
Ilyas Ansah Hull City Ativo 128 / 137 40% 2 28.03.2027 -
Themba Williams Ajax Cape Town Ativo 119 / 123 40% 1 28.03.2027 -
Bradley Zwane SuperSport United Ativo 128 / 125 40% 3 23.03.2027 -
Koki Saito Queens Park Rangers Ativo 120 / 120 40% 1 19.03.2027 -
Marcelo Allende Mamelodi Sundowns Ativo 135 / 132 40% 1 15.03.2027 -
Bongani Zungu Ajax Cape Town Ativo 126 / 114 40% 1 13.03.2027 -
Giacomo Raspadori Atalanta Ativo 145 / 150 40% 1 07.03.2027 -
Calvin Bassey Fulham Ativo 153 / 143 40% 1 09.02.2027 -
Gabriel Gudmundsson Leeds United Ativo 146 / 144 40% 1 05.02.2027 -
Adrien Truffert Bournemouth Ativo 154 / 156 40% 1 05.02.2027 -
Toby Collyer West Bromwich Albion Ativo 128 / 131 40% 1 05.02.2027 -
Brooke Norton-Cuffy Hull City Ativo 130 / 139 40% 1 03.02.2027 -
Welington Southampton Ativo 127 / 138 40% 1 03.02.2027 -
Alex Scott Bournemouth Ativo 153 / 147 40% 1 02.02.2027 -
Maurits Kjærgaard Red Bull Salzburg Ativo 130 / 135 40% 2 31.12.2026 -
Chemsdine Talbi Sunderland Ativo 144 / 136 40% 2 31.12.2026 -
Marquinhos Spartak Moscow Ativo 135 / 133 40% 1 31.12.2026 -
Amar Memić Viktoria Plzen Ativo 124 / 118 40% 1 16.12.2026 -
Derry Scherhant SC Freiburg Ativo 122 / 133 40% 1 14.12.2026 -
Frans Krätzig Red Bull Salzburg Ativo 123 / 122 40% 1 14.12.2026 -
Lee Tae-Suk Austria Wien Ativo 126 / 116 40% 2 11.12.2026 -
Amine Adli Bournemouth Ativo 150 / 134 40% 1 11.12.2026 -
Petter Nosa Dahl Rapid Wien Ativo 123 / 128 40% 4 20.11.2026 -
Matteo Pérez Vinlöf Dinamo Zagreb Ativo 114 / 127 40% 2 17.11.2026 -
Matthias Seidl Rapid Wien Ativo 120 / 131 40% 1 17.11.2026 -
Marcus Edwards Burnley Ativo 137 / 139 40% 1 14.11.2026 -
Kilian Fischer VfL Wolfsburg Ativo 130 / 131 40% 1 13.11.2026 -
Jack McGlynn Stoke City Ativo 134 / 128 40% 1 13.11.2026 -
Abubakr Barry Red Bull Salzburg Ativo 123 / 120 40% 1 12.11.2026 -
Gizo Mamageishvili Sturm Graz Ativo 120 / 125 40% 2 08.11.2026 -
Ola Brynhildsen Rapid Wien Ativo 123 / 125 40% 1 08.11.2026 -
Daniel Dos Santos Lugano Ativo 111 / 125 40% 2 06.11.2026 -
Valentino Ilsanker Mattersburg Ativo 101 / 115 40% 2 05.11.2026 -
Florian Micheler TSG Hoffenheim Ativo 106 / 123 40% 1 05.11.2026 -
Dejan Radonjić SV Ried Ativo 109 / 112 40% 1 05.11.2026 -
Fabian Wohlmuth Wolfsberger AC Ativo 104 / 114 40% 1 05.11.2026 -
Bung Meng Freimann Luzern Ativo 100 / 114 40% 1 03.11.2026 -
Philip Otele Basel Ativo 129 / 124 40% 1 09.10.2026 -
Talles Magno New York City Ativo 128 / 136 40% 1 09.10.2026 -
Fayssal Harchaoui Köln Ativo 100 / 115 40% 1 07.09.2026 -
Brighton Labeau Thun Ativo 105 / 119 72% 1 24.08.2026 Aprovar
Matteo Schablas Austria Wien Ativo 88 / 101 40% 1 10.08.2026 -